KBLV/BLV METAR and TAF weather

Enter ICAO airport designator
Station Type Date Time Source
KBLV METAR 2019/06/26 17:56 UTC NOAA

KBLV 261756Z 14008KT 7SM FEW035 BKN250 31/23 A3007 RMK AO2A SLPNO ALSTG ESTMD 57014 $


Station Type Date Time Source
KBLV Decoded METAR 2019/06/26 17:56 UTC NOAA

Belleville, Scott AFB/MidAmerica Airport, IL, United States (KBLV) 38-33N 089-51W
Jun 26, 2019 - 01:56 PM EDT / 2019.06.26 1756 UTC
Wind: from the SE (140 degrees) at 9 MPH (8 KT):0
Visibility: 7 mile(s):0
Sky conditions: mostly cloudy
Temperature: 87 F (31 C)
Heat index: 93.9 F (34.4 C):1
Dew Point: 73 F (23 C)
Relative Humidity: 62%
Pressure (altimeter): 30.07 in. Hg (1018 hPa)
Pressure tendency: 0.04 inches (1.4 hPa) lower than three hours ago
ob: KBLV 261756Z 14008KT 7SM FEW035 BKN250 31/23 A3007 RMK AO2A SLPNO ALSTG ESTMD 57014
cycle: 18

Station Type Date Time Source
KBLV TAF 2019/06/26 16:03 UTC NOAA

TAF TAF KBLV 261600Z 2616/2722 21009KT 9999 FEW030 SCT100 BKN250 QNH3002INS
TEMPO 2618/2622 27012G18KT 8000 -TSRA SCT030CB BKN250
BECMG 2700/2701 VRB06KT 9999 FEW250 QNH3005INS TX32/2621Z TN23/2710Z

Example: see airport list